createdAt,value
2019-06-01T00:00:28.914Z,14.03
2019-06-01T00:01:28.904Z,14.03
2019-06-01T00:02:28.894Z,13.90
2019-06-01T00:03:28.885Z,14.00
2019-06-01T00:04:28.875Z,13.95
2019-06-01T00:05:28.866Z,13.95
2019-06-01T00:06:28.857Z,13.92
2019-06-01T00:07:28.848Z,13.89
2019-06-01T00:08:28.838Z,13.90
2019-06-01T00:09:28.830Z,13.86
2019-06-01T00:10:28.823Z,13.87
2019-06-01T00:11:28.811Z,13.87
2019-06-01T00:12:28.813Z,13.92
2019-06-01T00:13:28.791Z,13.75
2019-06-01T00:14:28.785Z,13.83
2019-06-01T00:15:28.773Z,13.79
2019-06-01T00:16:28.775Z,13.81
2019-06-01T00:17:28.753Z,13.85
2019-06-01T00:18:28.743Z,13.85
2019-06-01T00:19:28.734Z,13.79
2019-06-01T00:20:28.726Z,13.78
2019-06-01T00:21:28.715Z,13.75
2019-06-01T00:22:28.706Z,13.74
2019-06-01T00:23:28.698Z,13.79
2019-06-01T00:24:28.690Z,13.75
2019-06-01T00:25:28.676Z,13.75
2019-06-01T00:26:28.670Z,13.75
2019-06-01T00:27:28.658Z,13.67
2019-06-01T00:28:28.648Z,13.72
2019-06-01T00:29:28.640Z,13.68
2019-06-01T00:30:28.629Z,13.70
2019-06-01T00:31:28.620Z,13.63
2019-06-01T00:32:28.619Z,13.63
2019-06-01T00:33:28.601Z,13.63
2019-06-01T00:34:28.597Z,13.60
2019-06-01T00:35:28.583Z,13.63
2019-06-01T00:36:28.575Z,13.65
2019-06-01T00:37:28.593Z,13.63
2019-06-01T00:38:28.553Z,13.63
2019-06-01T00:39:28.543Z,13.60
2019-06-01T00:40:28.535Z,13.67
2019-06-01T00:41:28.524Z,13.65
2019-06-01T00:42:28.515Z,13.68
2019-06-01T00:43:28.511Z,13.72
2019-06-01T00:44:28.494Z,13.56
2019-06-01T00:45:28.485Z,13.62
2019-06-01T00:46:28.476Z,13.67
2019-06-01T00:47:28.466Z,13.68
2019-06-01T00:48:28.457Z,13.62
2019-06-01T00:49:28.447Z,13.59
2019-06-01T00:50:28.440Z,13.57
2019-06-01T00:51:28.428Z,13.62
2019-06-01T00:52:28.418Z,13.57
2019-06-01T00:53:28.408Z,13.59
2019-06-01T00:54:28.399Z,13.57
2019-06-01T00:55:28.389Z,13.50
2019-06-01T00:56:28.379Z,13.50
2019-06-01T00:57:28.371Z,13.52
2019-06-01T00:58:28.360Z,13.49
2019-06-01T00:59:28.355Z,13.52
2019-06-01T01:00:42.796Z,13.42
2019-06-01T01:01:28.330Z,13.39
2019-06-01T01:02:28.321Z,13.39
2019-06-01T01:03:28.312Z,13.42
2019-06-01T01:04:28.307Z,13.41
2019-06-01T01:05:28.294Z,13.38
2019-06-01T01:06:28.282Z,13.39
2019-06-01T01:07:28.274Z,13.25
2019-06-01T01:08:28.263Z,13.31
2019-06-01T01:09:28.254Z,13.33
2019-06-01T01:10:28.244Z,13.30
2019-06-01T01:11:28.238Z,13.27
2019-06-01T01:12:28.223Z,13.28
2019-06-01T01:13:28.214Z,13.27
2019-06-01T01:14:28.205Z,13.25
2019-06-01T01:15:28.195Z,13.23
2019-06-01T01:16:28.184Z,13.28
2019-06-01T01:17:28.175Z,13.12
2019-06-01T01:18:28.166Z,13.22
2019-06-01T01:19:28.155Z,13.23
2019-06-01T01:20:28.145Z,13.23
2019-06-01T01:21:28.135Z,13.23
2019-06-01T01:22:28.126Z,13.18
2019-06-01T01:23:28.116Z,13.12
2019-06-01T01:24:28.105Z,13.15
2019-06-01T01:25:28.112Z,13.12
2019-06-01T01:26:28.085Z,13.13
2019-06-01T01:27:28.076Z,13.15
2019-06-01T01:28:28.066Z,13.05
2019-06-01T01:29:28.059Z,13.15
2019-06-01T01:30:28.046Z,13.00
2019-06-01T01:31:28.037Z,13.09
2019-06-01T01:32:28.029Z,13.09
2019-06-01T01:33:28.015Z,13.00
2019-06-01T01:34:28.006Z,13.04
2019-06-01T01:35:27.996Z,13.11
2019-06-01T01:36:27.986Z,13.09
2019-06-01T01:37:27.975Z,13.04
2019-06-01T01:38:27.966Z,13.08
2019-06-01T01:39:27.955Z,13.09
2019-06-01T01:40:27.944Z,13.09
2019-06-01T01:41:27.937Z,13.09
2019-06-01T01:42:27.924Z,13.04
2019-06-01T01:43:27.914Z,13.00
2019-06-01T01:44:27.904Z,13.08
2019-06-01T01:45:27.898Z,13.09
2019-06-01T01:46:27.886Z,12.98
2019-06-01T01:47:27.875Z,13.01
2019-06-01T01:48:27.864Z,13.08
2019-06-01T01:49:27.856Z,13.08
2019-06-01T01:50:27.844Z,13.09
2019-06-01T01:51:27.834Z,13.03
2019-06-01T01:52:27.824Z,13.08
2019-06-01T01:53:27.813Z,13.08
2019-06-01T01:54:27.805Z,12.98
2019-06-01T01:55:27.796Z,12.97
2019-06-01T01:56:27.783Z,13.00
2019-06-01T01:57:27.774Z,13.00
2019-06-01T01:58:27.764Z,12.85
2019-06-01T01:59:27.755Z,12.98
2019-06-01T02:00:27.744Z,12.94
2019-06-01T02:01:27.733Z,12.94
2019-06-01T02:02:27.725Z,12.86
2019-06-01T02:03:27.717Z,12.94
2019-06-01T02:04:27.705Z,12.85
2019-06-01T02:05:27.693Z,12.86
2019-06-01T02:06:29.114Z,12.85
2019-06-01T02:07:27.674Z,12.87
2019-06-01T02:08:27.679Z,12.83
2019-06-01T02:09:27.655Z,12.87
2019-06-01T02:10:27.644Z,12.85
2019-06-01T02:11:27.633Z,12.90
2019-06-01T02:12:27.624Z,12.85
2019-06-01T02:13:27.617Z,12.90
2019-06-01T02:14:27.605Z,12.86
2019-06-01T02:15:27.596Z,12.85
2019-06-01T02:16:27.591Z,12.82
2019-06-01T02:17:27.577Z,12.83
2019-06-01T02:18:27.563Z,12.80
2019-06-01T02:19:27.554Z,12.83
2019-06-01T02:20:27.542Z,12.86
2019-06-01T02:21:27.533Z,12.85
2019-06-01T02:22:27.522Z,12.83
2019-06-01T02:23:27.512Z,12.87
2019-06-01T02:24:27.507Z,12.83
2019-06-01T02:25:27.492Z,12.82
2019-06-01T02:26:27.482Z,12.83
2019-06-01T02:27:27.472Z,12.91
2019-06-01T02:28:27.462Z,12.80
2019-06-01T02:29:27.455Z,12.78
2019-06-01T02:30:27.442Z,12.78
2019-06-01T02:31:40.673Z,12.70
2019-06-01T02:32:27.421Z,12.68
2019-06-01T02:33:27.412Z,12.75
2019-06-01T02:34:27.404Z,12.79
2019-06-01T02:35:27.391Z,12.76
2019-06-01T02:36:27.381Z,12.65
2019-06-01T02:37:27.471Z,12.76
2019-06-01T02:38:27.361Z,12.64
2019-06-01T02:39:27.350Z,12.67
2019-06-01T02:40:27.344Z,12.64
2019-06-01T02:41:27.332Z,12.68
2019-06-01T02:42:27.320Z,12.68
2019-06-01T02:43:27.310Z,12.65
2019-06-01T02:44:27.299Z,12.67
2019-06-01T02:45:27.288Z,12.73
2019-06-01T02:46:27.279Z,12.73
2019-06-01T02:47:27.270Z,12.65
2019-06-01T02:48:27.258Z,12.68
2019-06-01T02:49:27.247Z,12.72
2019-06-01T02:50:27.241Z,12.65
2019-06-01T02:51:27.228Z,12.65
2019-06-01T02:52:27.217Z,12.65
2019-06-01T02:53:27.208Z,12.62
2019-06-01T02:54:27.197Z,12.65
2019-06-01T02:55:27.189Z,12.64
2019-06-01T02:56:27.177Z,12.67
2019-06-01T02:57:27.167Z,12.76
2019-06-01T02:58:27.159Z,12.73
2019-06-01T02:59:27.148Z,12.75
2019-06-01T03:00:27.137Z,12.76
2019-06-01T03:01:27.129Z,12.78
2019-06-01T03:02:27.117Z,12.78
2019-06-01T03:03:27.107Z,12.79
2019-06-01T03:04:27.096Z,12.83
2019-06-01T03:05:27.086Z,12.80
2019-06-01T03:06:27.076Z,12.67
2019-06-01T03:07:27.068Z,12.65
2019-06-01T03:08:27.060Z,12.67
2019-06-01T03:09:27.046Z,12.65
2019-06-01T03:10:27.036Z,12.65
2019-06-01T03:11:27.028Z,12.68
2019-06-01T03:12:27.019Z,12.78
2019-06-01T03:13:27.006Z,12.64
2019-06-01T03:14:26.997Z,12.72
2019-06-01T03:15:26.987Z,12.68
2019-06-01T03:16:26.976Z,12.67
2019-06-01T03:17:26.984Z,12.62
2019-06-01T03:18:26.971Z,12.79
2019-06-01T03:19:26.946Z,12.76
2019-06-01T03:20:26.934Z,12.79
2019-06-01T03:21:26.925Z,12.76
2019-06-01T03:22:26.915Z,12.67
2019-06-01T03:23:26.906Z,12.79
2019-06-01T03:24:26.894Z,12.75
2019-06-01T03:25:26.885Z,12.76
2019-06-01T03:26:26.874Z,12.65
2019-06-01T03:27:26.865Z,12.65
2019-06-01T03:28:26.855Z,12.65
2019-06-01T03:29:26.845Z,12.65
2019-06-01T03:30:26.839Z,12.67
2019-06-01T03:31:26.826Z,12.62
2019-06-01T03:32:36.171Z,12.67
2019-06-01T03:33:26.805Z,12.79
2019-06-01T03:34:26.797Z,12.75
2019-06-01T03:35:26.786Z,12.67
2019-06-01T03:36:26.776Z,12.79
2019-06-01T03:37:26.766Z,12.72
2019-06-01T03:38:26.856Z,12.80
2019-06-01T03:39:26.750Z,12.76
2019-06-01T03:40:26.735Z,12.79
2019-06-01T03:41:26.726Z,12.78
2019-06-01T03:42:26.720Z,12.80
2019-06-01T03:43:26.705Z,12.86
2019-06-01T03:44:26.697Z,12.87
2019-06-01T03:45:26.686Z,12.90
2019-06-01T03:46:26.681Z,12.94
2019-06-01T03:47:26.666Z,12.90
2019-06-01T03:48:26.655Z,12.91
2019-06-01T03:49:26.646Z,12.85
2019-06-01T03:50:26.636Z,12.91
2019-06-01T03:51:26.631Z,12.91
2019-06-01T03:52:26.617Z,12.97
2019-06-01T03:53:26.607Z,12.82
2019-06-01T03:54:26.597Z,12.90
2019-06-01T03:55:26.587Z,12.85
2019-06-01T03:56:26.576Z,12.83
2019-06-01T03:57:26.574Z,12.87
2019-06-01T03:58:26.608Z,12.86
2019-06-01T03:59:26.549Z,12.95
2019-06-01T04:00:26.537Z,12.90
2019-06-01T04:01:26.529Z,12.91
2019-06-01T04:02:33.217Z,12.93
2019-06-01T04:03:26.509Z,12.86
2019-06-01T04:04:26.500Z,12.83
2019-06-01T04:05:26.489Z,12.94
2019-06-01T04:06:26.482Z,12.87
2019-06-01T04:07:26.471Z,12.94
2019-06-01T04:08:26.563Z,12.85
2019-06-01T04:09:26.450Z,13.03
2019-06-01T04:10:26.442Z,13.01
2019-06-01T04:11:26.433Z,13.09
2019-06-01T04:12:26.426Z,13.09
2019-06-01T04:13:26.412Z,13.01
2019-06-01T04:14:26.404Z,13.12
2019-06-01T04:15:26.394Z,13.11
2019-06-01T04:16:26.382Z,13.19
2019-06-01T04:17:26.373Z,13.15
2019-06-01T04:18:26.363Z,13.22
2019-06-01T04:19:26.358Z,13.20
2019-06-01T04:20:26.343Z,13.23
2019-06-01T04:21:26.334Z,13.27
2019-06-01T04:22:26.330Z,13.23
2019-06-01T04:23:26.317Z,13.37
2019-06-01T04:24:26.307Z,13.23
2019-06-01T04:25:26.312Z,13.35
2019-06-01T04:26:26.288Z,13.39
2019-06-01T04:27:26.278Z,13.42
2019-06-01T04:28:26.269Z,13.41
2019-06-01T04:29:26.259Z,13.52
2019-06-01T04:30:26.250Z,13.52
2019-06-01T04:31:26.240Z,13.56
2019-06-01T04:32:26.232Z,13.60
2019-06-01T04:33:26.225Z,13.57
2019-06-01T04:34:26.212Z,13.65
2019-06-01T04:35:26.204Z,13.70
2019-06-01T04:36:26.199Z,13.62
2019-06-01T04:37:26.185Z,13.65
2019-06-01T04:38:26.176Z,13.65
2019-06-01T04:39:26.168Z,13.65
2019-06-01T04:40:26.157Z,13.65
2019-06-01T04:41:26.148Z,13.79
2019-06-01T04:42:26.139Z,13.77
2019-06-01T04:43:26.130Z,13.79
2019-06-01T04:44:26.124Z,13.81
2019-06-01T04:45:26.111Z,13.97
2019-06-01T04:46:26.110Z,13.89
2019-06-01T04:47:26.095Z,13.87
2019-06-01T04:48:26.084Z,13.96
2019-06-01T04:49:26.075Z,13.95
2019-06-01T04:50:26.065Z,13.99
2019-06-01T04:51:26.056Z,14.08
2019-06-01T04:52:26.046Z,14.04
2019-06-01T04:53:26.055Z,14.03
2019-06-01T04:54:26.028Z,14.18
2019-06-01T04:55:26.020Z,14.17
2019-06-01T04:56:26.010Z,14.20
2019-06-01T04:57:26.001Z,14.30
2019-06-01T04:58:25.992Z,14.23
2019-06-01T04:59:25.985Z,14.26
2019-06-01T05:00:28.070Z,14.30
2019-06-01T05:01:25.967Z,14.45
2019-06-01T05:02:25.957Z,14.35
2019-06-01T05:03:25.949Z,14.44
2019-06-01T05:04:25.937Z,14.40
2019-06-01T05:05:25.929Z,14.53
2019-06-01T05:06:25.920Z,14.50
2019-06-01T05:07:25.917Z,14.62
2019-06-01T05:08:25.901Z,14.68
2019-06-01T05:09:25.895Z,14.68
2019-06-01T05:10:25.884Z,14.77
2019-06-01T05:11:25.876Z,14.79
2019-06-01T05:12:25.868Z,14.72
2019-06-01T05:13:25.858Z,14.84
2019-06-01T05:14:25.858Z,14.81
2019-06-01T05:15:25.841Z,14.84
2019-06-01T05:16:25.832Z,14.82
2019-06-01T05:17:25.824Z,14.96
2019-06-01T05:18:25.815Z,14.96
2019-06-01T05:19:25.811Z,15.04
2019-06-01T05:20:25.797Z,15.02
2019-06-01T05:21:25.788Z,14.96
2019-06-01T05:22:25.782Z,15.02
2019-06-01T05:23:25.771Z,15.14
2019-06-01T05:24:25.762Z,15.02
2019-06-01T05:25:25.755Z,15.15
2019-06-01T05:26:25.746Z,15.19
2019-06-01T05:27:25.737Z,15.21
2019-06-01T05:28:25.730Z,15.22
2019-06-01T05:29:25.719Z,15.42
2019-06-01T05:30:25.711Z,15.37
2019-06-01T05:31:25.704Z,15.42
2019-06-01T05:32:25.693Z,15.51
2019-06-01T05:33:37.014Z,15.55
2019-06-01T05:34:25.679Z,15.65
2019-06-01T05:35:25.669Z,15.75
2019-06-01T05:36:25.673Z,15.76
2019-06-01T05:37:25.652Z,15.88
2019-06-01T05:38:25.643Z,15.94
2019-06-01T05:39:25.638Z,16.09
2019-06-01T05:40:25.626Z,16.15
2019-06-01T05:41:25.617Z,16.17
2019-06-01T05:42:25.610Z,16.23
2019-06-01T05:43:25.606Z,16.41
2019-06-01T05:44:25.595Z,16.43
2019-06-01T05:45:25.594Z,16.57
2019-06-01T05:46:25.579Z,16.68
2019-06-01T05:47:25.569Z,16.74
2019-06-01T05:48:30.432Z,16.87
2019-06-01T05:49:25.553Z,16.97
2019-06-01T05:50:25.545Z,16.96
2019-06-01T05:51:25.548Z,17.06
2019-06-01T05:52:25.531Z,17.12
2019-06-01T05:53:25.521Z,17.16
2019-06-01T05:54:25.516Z,17.30
2019-06-01T05:55:25.511Z,17.26
2019-06-01T05:56:25.499Z,17.34
2019-06-01T05:57:25.491Z,17.39
2019-06-01T05:58:25.485Z,17.49
2019-06-01T05:59:25.478Z,17.45
2019-06-01T06:00:25.468Z,17.54
2019-06-01T06:01:25.461Z,17.60
2019-06-01T06:02:25.456Z,17.70
2019-06-01T06:03:39.476Z,17.71
2019-06-01T06:04:25.439Z,17.82
2019-06-01T06:05:25.433Z,17.94
2019-06-01T06:06:25.425Z,17.90
2019-06-01T06:07:25.418Z,17.98
2019-06-01T06:08:25.412Z,17.98
2019-06-01T06:09:25.408Z,17.92
2019-06-01T06:10:25.397Z,18.10
2019-06-01T06:11:25.391Z,18.11
2019-06-01T06:12:25.383Z,18.22
2019-06-01T06:13:25.376Z,18.29
2019-06-01T06:14:25.370Z,18.31
2019-06-01T06:15:25.366Z,18.41
2019-06-01T06:16:25.356Z,18.44
2019-06-01T06:17:25.349Z,18.40
2019-06-01T06:18:25.344Z,18.52
2019-06-01T06:19:25.357Z,18.58
2019-06-01T06:20:25.328Z,18.62
2019-06-01T06:21:25.325Z,18.70
2019-06-01T06:22:25.316Z,18.88
2019-06-01T06:23:25.309Z,18.88
2019-06-01T06:24:25.302Z,18.89
2019-06-01T06:25:28.304Z,19.04
2019-06-01T06:26:25.302Z,19.11
2019-06-01T06:27:25.286Z,19.15
2019-06-01T06:28:26.770Z,19.30
2019-06-01T06:29:25.270Z,19.39
2019-06-01T06:30:25.269Z,19.45
2019-06-01T06:31:25.261Z,19.47
2019-06-01T06:32:25.268Z,19.49
2019-06-01T06:33:25.274Z,19.48
2019-06-01T06:34:25.241Z,19.66
2019-06-01T06:35:25.234Z,19.69
2019-06-01T06:36:25.229Z,19.69
2019-06-01T06:37:25.228Z,19.66
2019-06-01T06:38:25.218Z,19.73
2019-06-01T06:39:25.215Z,19.81
2019-06-01T06:40:25.205Z,19.79
2019-06-01T06:41:25.197Z,19.94
2019-06-01T06:42:25.192Z,19.96
2019-06-01T06:43:32.661Z,20.10
2019-06-01T06:44:25.187Z,20.11
2019-06-01T06:45:25.177Z,20.19
2019-06-01T06:46:25.177Z,20.22
2019-06-01T06:47:25.208Z,20.34
2019-06-01T06:48:25.339Z,20.55
2019-06-01T06:49:25.404Z,20.65
2019-06-01T06:50:25.610Z,20.66
2019-06-01T06:51:25.502Z,20.62
2019-06-01T06:52:25.756Z,20.69
2019-06-01T06:53:33.531Z,20.72
2019-06-01T06:54:26.029Z,20.88
2019-06-01T06:55:26.148Z,20.84
2019-06-01T06:56:26.082Z,20.87
2019-06-01T06:57:26.167Z,21.02
2019-06-01T06:58:26.386Z,21.00
2019-06-01T06:59:25.109Z,21.03
2019-06-01T07:00:25.130Z,21.03
2019-06-01T07:01:25.110Z,21.00
2019-06-01T07:02:25.130Z,21.14
2019-06-01T07:03:25.247Z,21.21
2019-06-01T07:04:25.344Z,21.33
2019-06-01T07:05:25.506Z,21.45
2019-06-01T07:06:25.698Z,21.57
2019-06-01T07:07:25.812Z,21.55
2019-06-01T07:08:25.991Z,21.62
2019-06-01T07:09:26.068Z,21.73
2019-06-01T07:10:26.237Z,21.76
2019-06-01T07:11:25.348Z,21.98
2019-06-01T07:12:25.410Z,21.92
2019-06-01T07:13:25.420Z,21.85
2019-06-01T07:14:25.435Z,22.13
2019-06-01T07:15:25.537Z,22.22
2019-06-01T07:16:25.536Z,22.32
2019-06-01T07:17:25.624Z,22.48
2019-06-01T07:18:25.764Z,22.54
2019-06-01T07:19:25.699Z,22.62
2019-06-01T07:20:25.716Z,22.81
2019-06-01T07:21:25.832Z,22.87
2019-06-01T07:22:25.822Z,22.75
2019-06-01T07:23:25.941Z,22.99
2019-06-01T07:24:26.019Z,23.09
2019-06-01T07:25:25.115Z,22.99
2019-06-01T07:26:26.222Z,23.00
2019-06-01T07:27:26.114Z,23.23
2019-06-01T07:28:26.142Z,23.41
2019-06-01T07:29:26.180Z,23.71
2019-06-01T07:30:26.253Z,23.76
2019-06-01T07:31:26.191Z,23.71
2019-06-01T07:32:26.593Z,23.71
2019-06-01T07:33:26.347Z,23.86
2019-06-01T07:34:33.523Z,23.84
2019-06-01T07:35:26.314Z,23.86
2019-06-01T07:36:26.583Z,23.87
2019-06-01T07:37:26.261Z,23.84
2019-06-01T07:38:25.163Z,23.84
2019-06-01T07:39:25.187Z,23.92
2019-06-01T07:40:25.171Z,24.03
2019-06-01T07:41:25.179Z,24.13
2019-06-01T07:42:26.633Z,24.21
2019-06-01T07:43:25.189Z,24.01
2019-06-01T07:44:25.193Z,23.98
2019-06-01T07:45:25.199Z,23.87
2019-06-01T07:46:25.204Z,23.66
2019-06-01T07:47:25.210Z,23.65
2019-06-01T07:48:25.218Z,23.84
2019-06-01T07:49:25.221Z,23.80
2019-06-01T07:50:25.990Z,23.80
2019-06-01T07:51:25.250Z,23.83
2019-06-01T07:52:26.181Z,23.87
2019-06-01T07:53:25.583Z,23.86
2019-06-01T07:54:26.338Z,23.76
2019-06-01T07:55:25.553Z,23.65
2019-06-01T07:56:26.446Z,23.73
2019-06-01T07:57:25.501Z,23.69
2019-06-01T07:58:26.660Z,23.87
2019-06-01T07:59:26.385Z,24.06
2019-06-01T08:00:26.078Z,24.24
2019-06-01T08:01:27.149Z,24.29
2019-06-01T08:02:26.268Z,24.28
2019-06-01T08:03:28.432Z,24.20
2019-06-01T08:04:26.659Z,23.93
2019-06-01T08:05:26.466Z,23.93
2019-06-01T08:06:26.188Z,23.98
2019-06-01T08:07:26.475Z,24.10
2019-06-01T08:08:25.345Z,24.30
2019-06-01T08:09:26.512Z,24.40
2019-06-01T08:10:26.212Z,24.33
2019-06-01T08:11:29.514Z,24.58
2019-06-01T08:12:25.551Z,24.85
2019-06-01T08:13:29.291Z,25.03
2019-06-01T08:14:26.495Z,25.11
2019-06-01T08:15:25.755Z,25.11
2019-06-01T08:16:25.899Z,25.26
2019-06-01T08:17:26.003Z,25.40
2019-06-01T08:18:25.993Z,25.60
2019-06-01T08:19:25.977Z,25.53
2019-06-01T08:20:26.029Z,25.18
2019-06-01T08:21:26.050Z,24.93
2019-06-01T08:22:25.975Z,24.98
2019-06-01T08:23:26.182Z,24.95
2019-06-01T08:24:26.222Z,24.78
2019-06-01T08:25:26.530Z,24.57
2019-06-01T08:26:26.469Z,24.32
2019-06-01T08:27:26.481Z,24.32
2019-06-01T08:28:26.490Z,24.50
2019-06-01T08:29:26.646Z,24.65
2019-06-01T08:30:26.415Z,24.77
2019-06-01T08:31:26.631Z,25.03
2019-06-01T08:32:26.589Z,25.25
2019-06-01T08:33:28.757Z,25.40
2019-06-01T08:34:26.788Z,25.32
2019-06-01T08:35:25.530Z,25.48
2019-06-01T08:36:25.550Z,25.66
2019-06-01T08:37:25.546Z,25.95
2019-06-01T08:38:25.636Z,26.02
2019-06-01T08:39:25.570Z,25.85
2019-06-01T08:40:25.571Z,26.15
2019-06-01T08:41:25.631Z,26.65
2019-06-01T08:42:25.590Z,26.84
2019-06-01T08:43:25.601Z,26.90
2019-06-01T08:44:25.608Z,27.10
2019-06-01T08:45:25.618Z,26.83
2019-06-01T08:46:25.629Z,26.21
2019-06-01T08:47:25.750Z,25.90
2019-06-01T08:48:25.721Z,25.99
2019-06-01T08:49:25.932Z,26.28
2019-06-01T08:50:25.759Z,26.21
2019-06-01T08:51:26.517Z,26.19
2019-06-01T08:52:25.957Z,26.41
2019-06-01T08:53:25.824Z,26.56
2019-06-01T08:54:25.996Z,26.53
2019-06-01T08:55:26.108Z,26.60
2019-06-01T08:56:26.210Z,26.63
2019-06-01T08:57:26.088Z,26.88
2019-06-01T08:58:26.237Z,26.97
2019-06-01T08:59:26.216Z,27.00
2019-06-01T09:00:26.333Z,27.29
2019-06-01T09:01:26.424Z,27.42
2019-06-01T09:02:26.593Z,27.44
2019-06-01T09:03:25.916Z,27.44
2019-06-01T09:04:26.617Z,27.30
2019-06-01T09:05:26.808Z,27.27
2019-06-01T09:06:26.717Z,27.35
2019-06-01T09:07:26.868Z,27.36
2019-06-01T09:08:27.037Z,27.29
2019-06-01T09:09:26.906Z,26.88
2019-06-01T09:10:27.448Z,26.38
2019-06-01T09:11:26.996Z,25.77
2019-06-01T09:12:27.170Z,25.65
2019-06-01T09:13:27.106Z,25.72
2019-06-01T09:14:27.109Z,25.83
2019-06-01T09:15:27.453Z,26.18
2019-06-01T09:16:27.692Z,26.29
2019-06-01T09:17:27.128Z,26.59
2019-06-01T09:18:27.455Z,26.92
2019-06-01T09:19:27.263Z,27.26
2019-06-01T09:20:25.960Z,27.58
2019-06-01T09:21:25.966Z,27.73
2019-06-01T09:22:25.979Z,27.77
2019-06-01T09:23:25.986Z,27.98
2019-06-01T09:24:25.994Z,28.25
2019-06-01T09:25:26.005Z,28.44
2019-06-01T09:26:26.325Z,28.30
2019-06-01T09:27:26.025Z,28.29
2019-06-01T09:28:26.040Z,28.11
2019-06-01T09:29:26.051Z,28.22
2019-06-01T09:30:26.066Z,28.33
2019-06-01T09:31:26.303Z,28.29
2019-06-01T09:32:26.134Z,28.35
2019-06-01T09:33:26.131Z,28.10
2019-06-01T09:34:26.287Z,27.85
2019-06-01T09:35:44.765Z,27.51
2019-06-01T09:36:26.189Z,26.96
2019-06-01T09:37:26.465Z,26.45
2019-06-01T09:38:27.528Z,25.90
2019-06-01T09:39:26.671Z,25.53
2019-06-01T09:40:28.232Z,25.29
2019-06-01T09:41:26.449Z,25.18
2019-06-01T09:42:26.730Z,25.10
2019-06-01T09:43:26.544Z,25.48
2019-06-01T09:44:26.870Z,25.98
2019-06-01T09:45:26.188Z,26.22
2019-06-01T09:46:26.950Z,26.37
2019-06-01T09:47:27.101Z,26.47
2019-06-01T09:48:27.042Z,26.37
2019-06-01T09:49:27.265Z,26.52
2019-06-01T09:50:27.247Z,26.85
2019-06-01T09:51:27.370Z,27.20
2019-06-01T09:52:27.347Z,27.45
2019-06-01T09:53:28.647Z,27.51
2019-06-01T09:54:27.335Z,27.78
2019-06-01T09:55:27.726Z,27.77
2019-06-01T09:56:29.033Z,27.68
2019-06-01T09:57:27.595Z,27.80
2019-06-01T09:58:26.292Z,27.64
2019-06-01T09:59:26.297Z,27.75
2019-06-01T10:00:26.306Z,27.93
2019-06-01T10:01:26.315Z,28.11
2019-06-01T10:02:26.325Z,28.15
2019-06-01T10:03:26.335Z,28.37
2019-06-01T10:04:26.345Z,28.19
2019-06-01T10:05:26.355Z,28.07
2019-06-01T10:06:26.367Z,27.86
2019-06-01T10:07:26.375Z,27.93
2019-06-01T10:08:26.384Z,27.86
2019-06-01T10:09:26.396Z,28.02
2019-06-01T10:10:26.404Z,28.14
2019-06-01T10:11:26.414Z,28.11
2019-06-01T10:12:26.423Z,28.11
2019-06-01T10:13:26.435Z,28.15
2019-06-01T10:14:26.466Z,28.05
2019-06-01T10:15:26.455Z,28.45
2019-06-01T10:16:26.466Z,28.78
2019-06-01T10:17:26.475Z,28.84
2019-06-01T10:18:27.170Z,29.20
2019-06-01T10:19:26.499Z,29.42
2019-06-01T10:20:26.508Z,29.42
2019-06-01T10:21:26.519Z,29.51
2019-06-01T10:22:26.533Z,29.68
2019-06-01T10:23:26.546Z,29.56
2019-06-01T10:24:26.553Z,29.49
2019-06-01T10:25:26.569Z,29.49
2019-06-01T10:26:26.577Z,29.44
2019-06-01T10:27:26.592Z,29.60
2019-06-01T10:28:26.603Z,29.44
2019-06-01T10:29:26.615Z,29.61
2019-06-01T10:30:26.626Z,29.63
2019-06-01T10:31:26.639Z,29.66
2019-06-01T10:32:26.651Z,29.47
2019-06-01T10:33:26.684Z,29.63
2019-06-01T10:34:26.675Z,29.84
2019-06-01T10:35:26.688Z,30.05
2019-06-01T10:36:26.703Z,30.18
2019-06-01T10:37:26.715Z,30.06
2019-06-01T10:38:26.727Z,30.44
2019-06-01T10:39:26.738Z,30.59
2019-06-01T10:40:26.751Z,30.73
2019-06-01T10:41:26.764Z,30.75
2019-06-01T10:42:26.778Z,30.73
2019-06-01T10:43:26.791Z,30.80
2019-06-01T10:44:26.813Z,30.81
2019-06-01T10:45:26.849Z,30.66
2019-06-01T10:46:26.835Z,30.53
2019-06-01T10:47:26.852Z,30.53
2019-06-01T10:48:26.856Z,30.43
2019-06-01T10:49:26.870Z,30.70
2019-06-01T10:50:26.886Z,31.00
2019-06-01T10:51:26.897Z,31.28
2019-06-01T10:52:26.910Z,31.52
2019-06-01T10:53:26.925Z,31.22
2019-06-01T10:54:26.939Z,30.59
2019-06-01T10:55:26.967Z,30.25
2019-06-01T10:56:26.965Z,30.16
2019-06-01T10:57:26.979Z,29.98
2019-06-01T10:58:26.992Z,30.12
2019-06-01T10:59:27.010Z,30.19
2019-06-01T11:00:37.695Z,30.02
2019-06-01T11:01:27.033Z,30.25
2019-06-01T11:02:27.046Z,30.55
2019-06-01T11:03:27.060Z,30.92
2019-06-01T11:04:27.076Z,31.27
2019-06-01T11:05:27.121Z,31.36
2019-06-01T11:06:36.752Z,31.73
2019-06-01T11:07:27.115Z,31.71
2019-06-01T11:08:27.128Z,31.40
2019-06-01T11:09:27.142Z,31.20
2019-06-01T11:10:27.156Z,30.94
2019-06-01T11:11:27.171Z,30.59
2019-06-01T11:12:27.184Z,30.18
2019-06-01T11:13:27.200Z,30.44
2019-06-01T11:14:27.220Z,30.62
2019-06-01T11:15:27.224Z,30.72
2019-06-01T11:16:27.237Z,30.37
2019-06-01T11:17:27.250Z,29.78
2019-06-01T11:18:27.263Z,29.65
2019-06-01T11:19:27.278Z,29.86
2019-06-01T11:20:27.292Z,30.18
2019-06-01T11:21:27.303Z,30.35
2019-06-01T11:22:27.316Z,30.25
2019-06-01T11:23:27.328Z,30.21
2019-06-01T11:24:27.340Z,30.06
2019-06-01T11:25:27.355Z,30.28
2019-06-01T11:26:27.367Z,30.32
2019-06-01T11:27:27.381Z,30.30
2019-06-01T11:28:27.421Z,30.50
2019-06-01T11:29:27.403Z,30.85
2019-06-01T11:30:27.415Z,30.91
2019-06-01T11:31:27.429Z,31.02
2019-06-01T11:32:27.441Z,31.44
2019-06-01T11:33:27.453Z,31.36
2019-06-01T11:34:27.466Z,31.17
2019-06-01T11:35:27.480Z,31.10
2019-06-01T11:36:27.493Z,31.51
2019-06-01T11:37:27.513Z,31.66
2019-06-01T11:38:27.518Z,32.09
2019-06-01T11:39:27.535Z,31.55
2019-06-01T11:40:27.546Z,31.17
2019-06-01T11:41:27.562Z,31.12
2019-06-01T11:42:27.574Z,31.36
2019-06-01T11:43:27.585Z,31.71
2019-06-01T11:44:27.597Z,31.80
2019-06-01T11:45:27.611Z,31.76
2019-06-01T11:46:27.627Z,31.87
2019-06-01T11:47:27.638Z,31.66
2019-06-01T11:48:27.651Z,31.58
2019-06-01T11:49:27.664Z,31.96
2019-06-01T11:50:27.678Z,32.14
2019-06-01T11:51:27.692Z,32.37
2019-06-01T11:52:27.705Z,32.12
2019-06-01T11:53:27.718Z,31.94
2019-06-01T11:54:27.731Z,31.99
2019-06-01T11:55:27.745Z,32.26
2019-06-01T11:56:27.757Z,32.14
2019-06-01T11:57:27.771Z,32.40
2019-06-01T11:58:27.786Z,32.60
2019-06-01T11:59:27.798Z,32.14
2019-06-01T12:00:27.814Z,31.78
2019-06-01T12:01:27.824Z,31.59
2019-06-01T12:02:27.839Z,31.66
2019-06-01T12:03:27.852Z,31.40
2019-06-01T12:04:27.864Z,31.56
2019-06-01T12:05:27.880Z,31.89
2019-06-01T12:06:27.889Z,31.94
2019-06-01T12:07:27.903Z,31.81
2019-06-01T12:08:27.922Z,31.81
2019-06-01T12:09:27.927Z,31.70
2019-06-01T12:10:27.961Z,31.43
2019-06-01T12:11:27.952Z,31.77
2019-06-01T12:12:27.967Z,31.90
2019-06-01T12:13:27.998Z,31.96
2019-06-01T12:14:27.991Z,32.16
2019-06-01T12:15:28.004Z,32.27
2019-06-01T12:16:28.014Z,32.12
2019-06-01T12:17:28.030Z,31.73
2019-06-01T12:18:28.039Z,31.22
2019-06-01T12:19:28.058Z,31.39
2019-06-01T12:20:28.062Z,31.69
2019-06-01T12:21:28.076Z,32.07
2019-06-01T12:22:28.088Z,32.16
2019-06-01T12:23:28.115Z,32.53
2019-06-01T12:24:28.111Z,32.83
2019-06-01T12:25:28.124Z,32.89
2019-06-01T12:26:28.137Z,32.95
2019-06-01T12:27:28.148Z,33.00
2019-06-01T12:28:28.160Z,32.89
2019-06-01T12:29:28.176Z,32.96
2019-06-01T12:30:28.184Z,33.00
2019-06-01T12:31:28.196Z,33.02
2019-06-01T12:32:28.210Z,33.31
2019-06-01T12:33:28.220Z,33.46
2019-06-01T12:34:28.237Z,33.32
2019-06-01T12:35:28.244Z,33.45
2019-06-01T12:36:28.256Z,33.50
2019-06-01T12:37:45.480Z,33.58
2019-06-01T12:38:28.280Z,33.42
2019-06-01T12:39:28.292Z,33.59
2019-06-01T12:40:28.305Z,33.14
2019-06-01T12:41:28.315Z,32.90
2019-06-01T12:42:28.328Z,32.77
2019-06-01T12:43:28.338Z,32.90
2019-06-01T12:44:28.354Z,33.20
2019-06-01T12:45:28.361Z,33.28
2019-06-01T12:46:28.373Z,33.40
2019-06-01T12:47:28.463Z,33.09
2019-06-01T12:48:28.396Z,32.68
2019-06-01T12:49:28.407Z,32.65
2019-06-01T12:50:28.419Z,32.97
2019-06-01T12:51:28.433Z,33.19
2019-06-01T12:52:28.441Z,33.31